Thursday, May 25, 2017, 8:25 AM EDT

KMUI, Muir Army Air Field / Indiantown

Location: Jonestown, PA, United States Lat: 40.433
Local Time: 8:25 AM EDT (12:25 GMT) Lon: -76.567
Time Zone: US/Eastern Elev: 488 ft

Show me the last for .
Show Decoded

2017-05-25 08:17 METAR KMUI 251217Z AUTO 08008G18KT 1 3/4SM -RA BR OVC007 13/13 A2954 RMK AO2 VIS
                 1 3/4V10 RAB1159E07RAB13 SLP005 =
2017-05-25 08:13 METAR KMUI 251213Z AUTO 08012G18KT 5SM -RA BR OVC007 13/13 A2954 RMK AO2
                 RAB1159E07RAB13 SLP005 =
2017-05-25 08:07 METAR KMUI 251207Z AUTO 07011G17KT 9SM OVC007 13/13 A2954 RMK AO2 RAB1159E07
                 SLP005 =
2017-05-25 07:59 METAR KMUI 251159Z AUTO 07011G19KT 4SM -RA BR OVC007 13/13 A2953 RMK AO2 RAB59
                 SLP001 =
2017-05-25 06:58 METAR KMUI 251058Z AUTO 07012G19KT 10SM OVC007 13/13 A2956 RMK AO2 RAB21E52
                 SLP011 P0002 T01270127 =
2017-05-25 06:52 METAR KMUI 251052Z AUTO 07011G19KT 10SM OVC007 13/13 A2956 RMK AO2 RAB21E52
                 SLP011 =
2017-05-25 06:21 METAR KMUI 251021Z AUTO 07009G17KT 9SM -RA OVC008 13/13 A2958 RMK AO2 RAB21
                 SLP018 =
2017-05-25 05:58 METAR KMUI 250958Z AUTO 07011G18KT 10SM OVC008 13/13 A2957 RMK AO2 RAE24 SLP015
                 P0001 T01280128 =
2017-05-25 05:24 METAR KMUI 250924Z AUTO 07012G18KT 8SM OVC007 13/13 A2958 RMK AO2 RAE24 SLP018 =
2017-05-25 04:58 METAR KMUI 250858Z AUTO 07009KT 10SM -RA OVC008 13/13 A2960 RMK AO2 SLP024 P0003
                 60014 T01260126 58029 =
2017-05-25 03:58 METAR KMUI 250758Z AUTO 07007KT 8SM -RA OVC008 13/13 A2965 RMK AO2 SLP042 P0007
                 =
2017-05-25 03:56 METAR KMUI 250756Z AUTO 08006KT 8SM -RA OVC008 13/13 A2965 RMK AO2 CIG 008V010
                 SLP042 =
2017-05-25 03:48 METAR KMUI 250748Z AUTO 06005KT 9SM -RA OVC009 13/13 A2965 RMK AO2 OVC V BKN
                 SLP042 =
2017-05-25 03:45 METAR KMUI 250745Z AUTO 07007KT 9SM -RA BKN010 13/13 A2965 RMK AO2 SLP042 =
2017-05-25 03:39 METAR KMUI 250739Z AUTO 07009KT 10SM -RA BKN009 BKN013 13/13 A2965 RMK AO2 CIG
                 009V012 SLP042 =
2017-05-25 03:18 METAR KMUI 250718Z AUTO 07009KT 9SM -RA OVC014 13/13 A2966 RMK AO2 SLP045 =
2017-05-25 02:58 METAR KMUI 250658Z AUTO 09008G16KT 8SM -RA OVC016 13/13 A2968 RMK AO2
                 RAE03RAB15E32DZB32E39RAB39 SLP052 P0004 T01330133 =
2017-05-25 02:39 METAR KMUI 250639Z AUTO 08004KT 9SM -RA OVC019 13/13 A2969 RMK AO2
                 RAE03RAB15E32DZB32E39RAB39 SLP055 =
2017-05-25 02:15 METAR KMUI 250615Z AUTO 10004KT 6SM -RA BKN023 OVC060 14/12 A2969 RMK AO2
                 RAE03RAB15 SLP055 =
2017-05-25 02:03 METAR KMUI 250603Z AUTO 10008KT 10SM BKN024 OVC060 14/12 A2969 RMK AO2 RAE03 CIG
                 024V060 BKN V SCT SLP055 =
2017-05-25 02:02 METAR KMUI 250602Z AUTO 09006KT 10SM -RA BKN024 OVC060 14/12 A2969 RMK AO2 CIG
                 024V060 BKN V SCT SLP055 =
2017-05-25 01:58 METAR KMUI 250558Z AUTO 09010KT 10SM -RA SCT024 OVC060 15/12 A2968 RMK AO2
                 DZB53E57RAB57 SLP052 P0000 60000 T01460117 10190 20146 57020 =
2017-05-25 01:53 METAR KMUI 250553Z AUTO 08008KT 10SM -DZ FEW025 OVC060 15/12 A2968 RMK AO2 DZB53
                 SLP052 =
2017-05-25 00:58 METAR KMUI 250458Z AUTO 07011KT 10SM SCT065 BKN085 BKN110 15/10 A2970 RMK AO2
                 SLP058 T01530102 402180113 =
2017-05-24 23:58 METAR KMUI 250358Z AUTO 08006KT 10SM FEW038 OVC075 16/10 A2973 RMK AO2 SLP069
                 T01630099 =
2017-05-24 22:58 METAR KMUI 250258Z AUTO 09008KT 10SM OVC040 17/10 A2974 RMK AO2 SLP072 T01700100
                 50007 =
2017-05-24 21:58 METAR KMUI 250158Z AUTO 12006KT 10SM SCT040 OVC050 18/11 A2975 RMK AO2 SLP075
                 T01770106 =
2017-05-24 20:58 METAR KMUI 250058Z AUTO 09008KT 10SM BKN042 19/11 A2973 RMK AO2 SLP069 T01850113
                 =
2017-05-24 19:58 METAR KMUI 242358Z 12006KT 10SM OVC040 19/11 A2972 RMK AO2A SLP066 T01910114
                 10218 20191 50001 =
2017-05-24 18:58 METAR KMUI 242258Z 13008KT 10SM BKN047 OVC100 20/12 A2972 RMK AO2A SLP066
                 T01970116 =
2017-05-24 17:58 METAR KMUI 242158Z 14010KT 10SM BKN050 BKN100 OVC200 21/11 A2972 RMK AO2A SLP066
                 T02060107 =
2017-05-24 16:58 METAR KMUI 242058Z 10005KT 10SM BKN055 BKN120 BKN200 21/11 A2972 RMK AO2A SLP066
                 T02140105 50004 =
2017-05-24 15:58 METAR KMUI 241958Z 18006KT 10SM BKN049 BKN100 BKN200 21/11 A2972 RMK AO2A SLP066
                 T02120111 =
2017-05-24 14:58 METAR KMUI 241858Z 13006KT 10SM BKN050 OVC120 21/11 A2973 RMK AO2A SLP069
                 T02070105 =
2017-05-24 13:58 METAR KMUI 241758Z 10008KT 10SM BKN046 BKN110 BKN250 21/11 A2971 RMK AO2A SLP062
                 T02060106 10218 20147 57013 =
2017-05-24 12:58 METAR KMUI 241658Z 12009KT 10SM SCT045 BKN240 21/10 A2973 RMK AO2A SLP069
                 T02120097 =
2017-05-24 11:58 METAR KMUI 241558Z 10003KT 10SM FEW035 BKN240 20/11 A2973 RMK AO2A SLP069
                 T02010109 =
2017-05-24 10:58 METAR KMUI 241458Z 09004KT 10SM SCT028 BKN100 BKN200 19/12 A2974 RMK AO2A SLP073
                 T01920121 55004 =
2017-05-24 09:58 METAR KMUI 241358Z 09004KT 10SM FEW023 SCT100 BKN200 17/13 A2973 RMK AO2A SLP069
                 T01730131 =
2017-05-24 08:58 METAR KMUI 241258Z 00000KT 10SM BKN100 OVC200 16/14 A2975 RMK AO2A SLP076
                 T01550135 =

Support USWX by starting your Amazon purchase here.